createdAt,value
2019-03-31T00:00:28.116Z,14.80
2019-03-31T00:02:57.851Z,15.00
2019-03-31T00:05:27.581Z,19.17
2019-03-31T00:07:56.983Z,15.73
2019-03-31T00:10:26.664Z,16.73
2019-03-31T00:12:56.382Z,15.97
2019-03-31T00:15:25.756Z,14.27
2019-03-31T00:17:55.380Z,13.13
2019-03-31T00:20:24.758Z,18.20
2019-03-31T00:22:54.170Z,18.93
2019-03-31T00:25:23.551Z,20.70
2019-03-31T00:27:52.934Z,19.50
2019-03-31T00:30:22.301Z,14.63
2019-03-31T00:32:51.693Z,14.68
2019-03-31T00:35:21.082Z,16.23
2019-03-31T00:37:50.485Z,17.23
2019-03-31T00:40:20.205Z,15.73
2019-03-31T00:42:49.596Z,14.37
2019-03-31T00:45:18.967Z,14.17
2019-03-31T00:47:48.355Z,15.03
2019-03-31T00:50:17.724Z,16.13
2019-03-31T00:52:47.110Z,18.90
2019-03-31T00:55:16.817Z,19.33
2019-03-31T00:57:46.525Z,14.53
2019-03-31T01:00:37.591Z,16.00
2019-03-31T01:03:07.537Z,16.37
2019-03-31T01:05:40.519Z,21.27
2019-03-31T01:08:10.067Z,20.10
2019-03-31T01:10:40.175Z,16.23
2019-03-31T01:13:09.997Z,15.67
2019-03-31T01:15:39.652Z,17.27
2019-03-31T01:18:09.770Z,14.13
2019-03-31T01:20:39.147Z,16.17
2019-03-31T01:23:08.536Z,14.87
2019-03-31T01:25:38.275Z,16.97
2019-03-31T01:28:07.654Z,20.00
2019-03-31T01:30:37.102Z,17.47
2019-03-31T01:33:07.080Z,16.97
2019-03-31T01:35:36.535Z,16.57
2019-03-31T01:38:05.909Z,17.80
2019-03-31T01:40:35.356Z,15.13
2019-03-31T01:43:04.859Z,14.50
2019-03-31T01:45:34.301Z,17.63
2019-03-31T01:48:04.786Z,18.03
2019-03-31T01:50:34.174Z,18.50
2019-03-31T01:53:03.545Z,16.73
2019-03-31T01:55:32.914Z,17.97
2019-03-31T01:58:02.283Z,18.40
2019-03-31T02:00:33.466Z,16.70
2019-03-31T02:03:03.123Z,15.30
2019-03-31T02:05:32.853Z,17.87
2019-03-31T02:08:02.195Z,16.63
2019-03-31T02:10:31.576Z,17.17
2019-03-31T02:13:00.934Z,20.90
2019-03-31T02:15:30.746Z,13.90
2019-03-31T02:18:00.118Z,17.47
2019-03-31T02:20:29.503Z,18.47
2019-03-31T02:22:58.966Z,15.47
2019-03-31T02:25:28.342Z,17.93
2019-03-31T02:27:57.709Z,18.70
2019-03-31T02:30:27.348Z,16.60
2019-03-31T02:32:56.732Z,22.73
2019-03-31T02:35:26.096Z,18.50
2019-03-31T02:37:55.471Z,21.77
2019-03-31T02:40:24.877Z,16.90
2019-03-31T02:42:54.318Z,19.37
2019-03-31T02:45:23.976Z,17.17
2019-03-31T02:47:53.360Z,19.50
2019-03-31T02:50:44.261Z,17.20
2019-03-31T02:53:14.252Z,23.43
2019-03-31T02:55:45.644Z,18.03
2019-03-31T02:58:16.450Z,15.77
2019-03-31T03:00:46.438Z,16.50
2019-03-31T03:03:19.923Z,14.73
2019-03-31T03:05:50.427Z,16.00
2019-03-31T03:08:20.923Z,16.43
2019-03-31T03:10:52.422Z,19.40
2019-03-31T03:13:25.907Z,17.80
2019-03-31T03:16:08.924Z,18.27
2019-03-31T03:18:38.524Z,18.87
2019-03-31T03:21:07.899Z,16.47
2019-03-31T03:23:37.298Z,18.80
2019-03-31T03:26:06.654Z,17.80
2019-03-31T03:28:36.048Z,16.47
2019-03-31T03:31:14.033Z,23.27
2019-03-31T03:33:36.519Z,18.27
2019-03-31T03:36:05.881Z,17.03
2019-03-31T03:38:35.248Z,14.83
2019-03-31T03:41:04.692Z,16.03
2019-03-31T03:43:34.055Z,21.00
2019-03-31T03:46:03.426Z,17.30
2019-03-31T03:48:33.548Z,17.67
2019-03-31T03:51:02.934Z,19.63
2019-03-31T03:53:32.322Z,22.40
2019-03-31T03:56:01.687Z,20.97
2019-03-31T03:58:31.056Z,24.33
2019-03-31T04:01:00.426Z,19.37
2019-03-31T04:03:31.206Z,17.03
2019-03-31T04:06:00.666Z,20.83
2019-03-31T04:08:30.053Z,17.07
2019-03-31T04:11:09.690Z,17.30
2019-03-31T04:13:39.132Z,16.17
2019-03-31T04:16:08.569Z,20.83
2019-03-31T04:18:37.954Z,17.10
2019-03-31T04:21:07.312Z,21.57
2019-03-31T04:23:36.682Z,19.23
2019-03-31T04:26:06.049Z,16.50
2019-03-31T04:28:35.424Z,18.03
2019-03-31T04:31:04.804Z,16.77
2019-03-31T04:33:49.291Z,17.43
2019-03-31T04:36:05.400Z,20.20
2019-03-31T04:38:35.070Z,20.80
2019-03-31T04:41:04.768Z,20.47
2019-03-31T04:43:34.192Z,22.50
2019-03-31T04:46:22.904Z,20.50
2019-03-31T04:48:52.565Z,22.23
2019-03-31T04:51:21.934Z,22.33
2019-03-31T04:53:51.565Z,19.77
2019-03-31T04:56:20.947Z,20.40
2019-03-31T04:58:50.319Z,19.40
2019-03-31T05:01:19.696Z,22.33
2019-03-31T05:04:03.526Z,23.23
2019-03-31T05:06:20.209Z,21.83
2019-03-31T05:08:49.579Z,22.37
2019-03-31T05:11:18.955Z,19.07
2019-03-31T05:13:48.594Z,21.13
2019-03-31T05:16:17.974Z,22.60
2019-03-31T05:18:47.336Z,21.27
2019-03-31T05:21:16.720Z,20.20
2019-03-31T05:23:46.157Z,22.83
2019-03-31T05:26:15.530Z,26.00
2019-03-31T05:28:44.902Z,18.60
2019-03-31T05:31:14.276Z,22.97
2019-03-31T05:33:43.905Z,28.00
2019-03-31T05:36:13.280Z,21.43
2019-03-31T05:38:42.650Z,23.60
2019-03-31T05:41:12.090Z,26.27
2019-03-31T05:43:41.455Z,24.27
2019-03-31T05:46:10.829Z,26.40
2019-03-31T05:48:40.523Z,24.67
2019-03-31T05:51:09.904Z,25.87
2019-03-31T05:53:39.274Z,26.77
2019-03-31T05:56:08.669Z,27.37
2019-03-31T05:58:38.023Z,24.37
2019-03-31T06:01:07.650Z,24.10
2019-03-31T06:03:37.007Z,24.57
2019-03-31T06:06:06.641Z,20.70
2019-03-31T06:08:36.251Z,21.17
2019-03-31T06:11:05.694Z,21.70
2019-03-31T06:13:35.300Z,18.70
2019-03-31T06:16:04.674Z,21.80
2019-03-31T06:18:34.043Z,23.90
2019-03-31T06:21:03.426Z,30.03
2019-03-31T06:23:32.800Z,34.70
2019-03-31T06:26:02.181Z,32.00
2019-03-31T06:28:31.549Z,38.40
2019-03-31T06:31:01.203Z,40.50
2019-03-31T06:33:30.575Z,36.60
2019-03-31T06:35:59.960Z,46.57
2019-03-31T06:38:29.327Z,44.13
2019-03-31T06:40:58.885Z,37.27
2019-03-31T06:43:28.258Z,36.90
2019-03-31T06:45:57.640Z,36.00
2019-03-31T06:48:27.030Z,55.10
2019-03-31T06:51:17.173Z,53.37
2019-03-31T06:53:46.706Z,64.53
2019-03-31T06:56:16.091Z,61.93
2019-03-31T06:58:45.469Z,67.13
2019-03-31T07:01:14.842Z,64.03
2019-03-31T07:03:44.459Z,72.13
2019-03-31T07:06:14.158Z,72.67
2019-03-31T07:08:43.531Z,73.60
2019-03-31T07:11:12.938Z,74.23
2019-03-31T07:13:42.322Z,81.50
2019-03-31T07:16:11.697Z,78.37
2019-03-31T07:18:41.086Z,71.07
2019-03-31T07:21:10.619Z,72.67
2019-03-31T07:23:39.980Z,77.77
2019-03-31T07:26:11.131Z,72.40
2019-03-31T07:28:40.619Z,69.83
2019-03-31T07:31:09.978Z,69.77
2019-03-31T07:33:39.433Z,76.43
2019-03-31T07:36:08.842Z,70.37
2019-03-31T07:38:39.596Z,74.60
2019-03-31T07:41:12.911Z,85.03
2019-03-31T07:43:40.744Z,82.77
2019-03-31T07:46:10.185Z,79.13
2019-03-31T07:48:39.577Z,78.80
2019-03-31T07:51:08.949Z,84.23
2019-03-31T07:53:38.628Z,77.20
2019-03-31T07:56:08.317Z,87.17
2019-03-31T07:58:37.702Z,83.60
2019-03-31T08:01:07.119Z,83.53
2019-03-31T08:03:36.474Z,81.50
2019-03-31T08:06:06.098Z,87.07
2019-03-31T08:08:35.540Z,81.00
2019-03-31T08:11:04.930Z,80.10
2019-03-31T08:13:34.315Z,87.60
2019-03-31T08:16:03.859Z,80.63
2019-03-31T08:18:33.242Z,83.53
2019-03-31T08:21:02.615Z,89.80
2019-03-31T08:23:32.005Z,86.00
2019-03-31T08:26:01.383Z,84.37
2019-03-31T08:28:31.421Z,81.30
2019-03-31T08:31:01.582Z,84.42
2019-03-31T08:33:31.458Z,78.07
2019-03-31T08:36:01.461Z,81.57
2019-03-31T08:38:31.505Z,78.33
2019-03-31T08:41:01.484Z,77.20
2019-03-31T08:43:31.517Z,71.85
2019-03-31T08:46:01.519Z,72.53
2019-03-31T08:48:32.383Z,70.90
2019-03-31T08:51:01.757Z,77.87
2019-03-31T08:53:31.391Z,68.97
2019-03-31T08:56:00.778Z,79.23
2019-03-31T08:58:30.156Z,62.30
2019-03-31T09:01:01.191Z,62.43
2019-03-31T09:03:30.860Z,67.03
2019-03-31T09:06:01.960Z,71.17
2019-03-31T09:08:31.364Z,62.23
2019-03-31T09:11:00.812Z,62.93
2019-03-31T09:13:30.171Z,69.17
2019-03-31T09:15:59.561Z,64.17
2019-03-31T09:18:48.391Z,64.80
2019-03-31T09:21:17.809Z,75.70
2019-03-31T09:23:47.212Z,67.63
2019-03-31T09:26:16.601Z,62.07
2019-03-31T09:28:46.049Z,58.77
2019-03-31T09:31:15.700Z,62.08
2019-03-31T09:33:45.076Z,63.40
2019-03-31T09:36:16.425Z,57.10
2019-03-31T09:38:45.556Z,58.73
2019-03-31T09:41:14.940Z,55.13
2019-03-31T09:43:44.320Z,61.05
2019-03-31T09:46:14.027Z,60.73
2019-03-31T09:48:43.395Z,53.98
2019-03-31T09:51:12.785Z,56.33
2019-03-31T09:53:42.158Z,60.78
2019-03-31T09:56:15.019Z,53.90
2019-03-31T09:58:42.692Z,58.33
2019-03-31T10:01:12.114Z,53.07
2019-03-31T10:03:41.742Z,50.63
2019-03-31T10:06:11.449Z,53.45
2019-03-31T10:08:41.130Z,54.97
2019-03-31T10:11:10.691Z,51.73
2019-03-31T10:13:40.062Z,53.87
2019-03-31T10:16:09.448Z,56.70
2019-03-31T10:18:38.822Z,50.53
2019-03-31T10:21:08.208Z,53.33
2019-03-31T10:23:37.586Z,58.30
2019-03-31T10:26:06.970Z,53.25
2019-03-31T10:28:36.340Z,45.95
2019-03-31T10:31:05.800Z,54.30
2019-03-31T10:33:35.175Z,57.93
2019-03-31T10:36:04.555Z,57.07
2019-03-31T10:38:34.767Z,53.25
2019-03-31T10:41:04.279Z,58.30
2019-03-31T10:43:34.125Z,48.83
2019-03-31T10:46:03.505Z,57.53
2019-03-31T10:48:32.882Z,60.13
2019-03-31T10:51:02.362Z,69.33
2019-03-31T10:53:32.069Z,68.07
2019-03-31T10:56:01.446Z,62.53
2019-03-31T10:58:30.829Z,58.63
2019-03-31T11:01:00.213Z,57.85
2019-03-31T11:03:32.945Z,58.17
2019-03-31T11:06:01.279Z,51.30
2019-03-31T11:08:32.040Z,55.57
2019-03-31T11:11:01.432Z,53.97
2019-03-31T11:13:30.810Z,58.27
2019-03-31T11:16:00.193Z,55.63
2019-03-31T11:18:29.573Z,59.58
2019-03-31T11:21:00.588Z,51.60
2019-03-31T11:23:30.946Z,53.77
2019-03-31T11:26:00.324Z,59.10
2019-03-31T11:28:29.713Z,59.33
2019-03-31T11:30:59.085Z,55.97
2019-03-31T11:33:28.466Z,55.90
2019-03-31T11:35:57.852Z,54.57
2019-03-31T11:38:27.245Z,52.57
2019-03-31T11:41:15.955Z,54.17
2019-03-31T11:43:45.345Z,57.33
2019-03-31T11:46:15.717Z,48.30
2019-03-31T11:48:45.098Z,53.13
2019-03-31T11:51:14.472Z,50.47
2019-03-31T11:53:44.130Z,47.58
2019-03-31T11:56:13.512Z,55.80
2019-03-31T11:58:42.904Z,48.87
2019-03-31T12:01:12.273Z,49.93
2019-03-31T12:03:41.696Z,49.00
2019-03-31T12:06:11.425Z,49.73
2019-03-31T12:08:40.841Z,47.00
2019-03-31T12:11:10.290Z,48.90
2019-03-31T12:13:39.955Z,42.97
2019-03-31T12:16:09.325Z,39.60
2019-03-31T12:18:38.711Z,44.37
2019-03-31T12:21:08.328Z,45.73
2019-03-31T12:23:37.716Z,43.67
2019-03-31T12:26:07.084Z,47.88
2019-03-31T12:28:36.714Z,39.50
2019-03-31T12:31:06.074Z,41.03
2019-03-31T12:33:35.698Z,36.93
2019-03-31T12:36:06.879Z,39.23
2019-03-31T12:38:36.265Z,41.03
2019-03-31T12:41:05.800Z,39.27
2019-03-31T12:43:35.190Z,43.87
2019-03-31T12:46:05.981Z,37.37
2019-03-31T12:48:35.614Z,37.30
2019-03-31T12:51:05.297Z,37.00
2019-03-31T12:53:34.676Z,41.20
2019-03-31T12:56:04.046Z,32.77
2019-03-31T12:58:33.438Z,29.82
2019-03-31T13:01:02.813Z,36.13
2019-03-31T13:03:32.213Z,38.70
2019-03-31T13:06:01.587Z,40.37
2019-03-31T13:08:31.040Z,39.30
2019-03-31T13:11:00.435Z,38.30
2019-03-31T13:13:29.914Z,35.27
2019-03-31T13:15:59.291Z,41.88
2019-03-31T13:18:28.675Z,32.80
2019-03-31T13:20:58.049Z,37.20
2019-03-31T13:23:27.427Z,36.93
2019-03-31T13:25:57.059Z,38.43
2019-03-31T13:28:26.674Z,36.87
2019-03-31T13:30:57.192Z,33.27
2019-03-31T13:33:26.817Z,38.23
2019-03-31T13:35:56.202Z,31.70
2019-03-31T13:38:25.571Z,34.03
2019-03-31T13:40:54.964Z,31.10
2019-03-31T13:43:24.605Z,38.67
2019-03-31T13:45:53.982Z,36.07
2019-03-31T13:48:23.601Z,36.60
2019-03-31T13:50:52.998Z,36.00
2019-03-31T13:53:22.374Z,35.77
2019-03-31T13:55:51.779Z,34.87
2019-03-31T13:58:23.435Z,36.63
2019-03-31T14:00:52.277Z,29.92
2019-03-31T14:03:21.641Z,40.58
2019-03-31T14:05:51.035Z,39.03
2019-03-31T14:08:25.987Z,36.17
2019-03-31T14:10:51.517Z,30.60
2019-03-31T14:13:20.895Z,33.07
2019-03-31T14:15:50.284Z,37.23
2019-03-31T14:18:19.917Z,33.47
2019-03-31T14:20:49.312Z,31.80
2019-03-31T14:23:18.690Z,32.40
2019-03-31T14:25:48.148Z,33.47
2019-03-31T14:28:17.519Z,35.43
2019-03-31T14:30:46.908Z,36.93
2019-03-31T14:33:16.306Z,28.33
2019-03-31T14:35:45.697Z,30.67
2019-03-31T14:38:15.059Z,29.47
2019-03-31T14:40:44.438Z,28.62
2019-03-31T14:43:13.897Z,30.50
2019-03-31T14:45:43.284Z,27.67
2019-03-31T14:48:12.658Z,29.70
2019-03-31T14:50:43.011Z,29.07
2019-03-31T14:53:12.698Z,28.57
2019-03-31T14:55:42.087Z,26.12
2019-03-31T14:58:11.464Z,28.93
2019-03-31T15:00:40.849Z,26.05
2019-03-31T15:03:11.370Z,27.50
2019-03-31T15:05:40.790Z,30.57
2019-03-31T15:08:10.136Z,25.20
2019-03-31T15:10:39.887Z,25.47
2019-03-31T15:13:09.502Z,33.50
2019-03-31T15:15:38.892Z,28.90
2019-03-31T15:18:08.268Z,26.42
2019-03-31T15:20:37.644Z,23.97
2019-03-31T15:23:07.262Z,25.77
2019-03-31T15:25:36.663Z,27.07
2019-03-31T15:28:06.044Z,23.80
2019-03-31T15:30:35.580Z,26.80
2019-03-31T15:33:04.962Z,25.10
2019-03-31T15:35:37.571Z,21.27
2019-03-31T15:38:05.799Z,28.97
2019-03-31T15:40:35.136Z,21.53
2019-03-31T15:43:04.596Z,29.40
2019-03-31T15:45:33.962Z,24.05
2019-03-31T15:48:03.350Z,22.00
2019-03-31T15:50:32.725Z,23.07
2019-03-31T15:53:03.261Z,25.00
2019-03-31T15:55:32.635Z,18.27
2019-03-31T15:58:05.200Z,17.27
2019-03-31T16:00:33.125Z,18.27
2019-03-31T16:03:02.511Z,22.50
2019-03-31T16:05:31.892Z,18.57
2019-03-31T16:08:01.533Z,21.62
2019-03-31T16:10:30.902Z,18.03
2019-03-31T16:13:00.385Z,19.33
2019-03-31T16:15:29.767Z,22.23
2019-03-31T16:17:59.203Z,16.33
2019-03-31T16:20:28.849Z,16.97
2019-03-31T16:22:59.139Z,20.00
2019-03-31T16:25:30.875Z,18.25
2019-03-31T16:28:00.265Z,20.27
2019-03-31T16:30:30.313Z,21.87
2019-03-31T16:32:59.693Z,14.20
2019-03-31T16:35:29.076Z,15.30
2019-03-31T16:37:58.462Z,14.63
2019-03-31T16:40:27.839Z,16.00
2019-03-31T16:42:57.229Z,21.45
2019-03-31T16:45:26.604Z,17.63
2019-03-31T16:47:55.994Z,14.70
2019-03-31T16:50:25.372Z,21.00
2019-03-31T16:52:55.003Z,16.23
2019-03-31T16:55:24.376Z,15.53
2019-03-31T16:57:53.771Z,15.23
2019-03-31T17:00:23.213Z,16.60
2019-03-31T17:02:52.865Z,18.87
2019-03-31T17:05:23.958Z,22.73
2019-03-31T17:07:53.314Z,16.63
2019-03-31T17:10:22.699Z,17.70
2019-03-31T17:12:52.087Z,14.20
2019-03-31T17:15:21.456Z,20.43
2019-03-31T17:17:50.858Z,13.32
2019-03-31T17:20:20.365Z,14.40
2019-03-31T17:22:49.801Z,14.40
2019-03-31T17:25:19.188Z,14.97
2019-03-31T17:27:48.580Z,14.10
2019-03-31T17:30:18.309Z,14.33
2019-03-31T17:32:47.681Z,16.93
2019-03-31T17:35:17.348Z,12.37
2019-03-31T17:37:46.727Z,13.70
2019-03-31T17:40:16.180Z,16.63
2019-03-31T17:42:45.560Z,14.90
2019-03-31T17:45:17.278Z,13.27
2019-03-31T17:47:46.172Z,11.77
2019-03-31T17:50:15.624Z,11.50
2019-03-31T17:52:45.012Z,14.90
2019-03-31T17:55:17.382Z,12.67
2019-03-31T17:57:47.172Z,12.60
2019-03-31T18:00:16.954Z,11.90
2019-03-31T18:02:46.339Z,13.90
2019-03-31T18:05:15.722Z,14.13
2019-03-31T18:07:45.093Z,13.30
2019-03-31T18:10:21.254Z,10.90
2019-03-31T18:12:45.666Z,12.47
2019-03-31T18:15:15.270Z,12.17
2019-03-31T18:17:45.065Z,12.87
2019-03-31T18:20:14.612Z,13.07
2019-03-31T18:22:43.973Z,13.33
2019-03-31T18:25:13.571Z,11.77
2019-03-31T18:27:42.952Z,16.23
2019-03-31T18:30:12.843Z,12.57
2019-03-31T18:32:44.049Z,13.30
2019-03-31T18:35:16.608Z,14.33
2019-03-31T18:37:44.595Z,11.63
2019-03-31T18:40:14.075Z,12.90
2019-03-31T18:42:43.449Z,13.83
2019-03-31T18:45:13.100Z,15.90
2019-03-31T18:47:42.545Z,10.73
2019-03-31T18:50:12.135Z,15.33
2019-03-31T18:52:43.079Z,13.73
2019-03-31T18:55:23.098Z,14.10
2019-03-31T18:58:09.091Z,16.40
2019-03-31T19:00:49.345Z,18.40
2019-03-31T19:03:26.371Z,11.87
2019-03-31T19:05:57.432Z,13.17
2019-03-31T19:08:35.128Z,12.13
2019-03-31T19:11:07.479Z,15.23
2019-03-31T19:13:39.098Z,14.98
2019-03-31T19:16:28.358Z,16.23
2019-03-31T19:19:02.158Z,18.87
2019-03-31T19:21:52.112Z,14.60
2019-03-31T19:24:26.237Z,14.85
2019-03-31T19:27:06.245Z,14.25
2019-03-31T19:29:49.124Z,16.93
2019-03-31T19:32:23.223Z,14.77
2019-03-31T19:35:10.250Z,11.37
2019-03-31T19:37:41.293Z,12.15
2019-03-31T19:40:28.192Z,17.50
2019-03-31T19:43:16.636Z,14.70
2019-03-31T19:46:05.596Z,11.53
2019-03-31T19:48:52.851Z,16.90
2019-03-31T19:51:35.931Z,18.67
2019-03-31T19:54:07.017Z,18.40
2019-03-31T19:56:56.148Z,17.10
2019-03-31T19:59:30.121Z,17.87
2019-03-31T20:02:17.322Z,17.83
2019-03-31T20:05:02.979Z,19.17
2019-03-31T20:07:39.734Z,12.57
2019-03-31T20:10:23.175Z,12.20
2019-03-31T20:13:10.811Z,11.60
2019-03-31T20:15:47.718Z,15.47
2019-03-31T20:18:18.758Z,15.78
2019-03-31T20:20:50.090Z,17.97
2019-03-31T20:23:26.870Z,9.70
2019-03-31T20:26:06.765Z,11.03
2019-03-31T20:28:53.907Z,11.07
2019-03-31T20:31:30.762Z,22.55
2019-03-31T20:34:01.788Z,13.27
2019-03-31T20:36:38.504Z,14.60
2019-03-31T20:39:23.177Z,12.20
2019-03-31T20:41:54.256Z,12.93
2019-03-31T20:44:23.708Z,13.93
2019-03-31T20:46:53.077Z,13.17
2019-03-31T20:49:22.459Z,10.77
2019-03-31T20:51:51.833Z,10.10
2019-03-31T20:54:21.214Z,13.67
2019-03-31T20:56:51.308Z,12.53
2019-03-31T20:59:21.333Z,9.78
2019-03-31T21:01:50.702Z,13.13
2019-03-31T21:04:20.080Z,11.27
2019-03-31T21:06:49.456Z,14.60
2019-03-31T21:09:18.828Z,17.33
2019-03-31T21:11:48.461Z,11.27
2019-03-31T21:14:17.863Z,14.07
2019-03-31T21:16:47.306Z,21.10
2019-03-31T21:19:19.116Z,20.17
2019-03-31T21:21:48.123Z,20.03
2019-03-31T21:24:17.502Z,17.50
2019-03-31T21:26:46.876Z,19.33
2019-03-31T21:29:16.279Z,16.70
2019-03-31T21:31:45.651Z,21.40
2019-03-31T21:34:15.041Z,15.17
2019-03-31T21:36:44.410Z,15.27
2019-03-31T21:39:14.138Z,21.63
2019-03-31T21:41:43.506Z,20.93
2019-03-31T21:44:12.896Z,20.53
2019-03-31T21:46:42.265Z,19.27
2019-03-31T21:49:11.635Z,14.40
2019-03-31T21:51:41.000Z,14.05
2019-03-31T21:54:10.645Z,16.77
2019-03-31T21:56:40.012Z,17.87
2019-03-31T21:59:09.540Z,14.60
2019-03-31T22:01:38.980Z,16.57
2019-03-31T22:04:08.600Z,15.90
2019-03-31T22:06:37.966Z,15.37
2019-03-31T22:09:09.526Z,15.73
2019-03-31T22:11:38.905Z,12.07
2019-03-31T22:14:10.553Z,13.17
2019-03-31T22:16:39.372Z,18.57
2019-03-31T22:19:08.812Z,19.87
2019-03-31T22:21:38.186Z,11.87
2019-03-31T22:24:07.559Z,18.93
2019-03-31T22:26:36.940Z,18.47
2019-03-31T22:29:06.303Z,15.50
2019-03-31T22:31:35.690Z,14.47
2019-03-31T22:34:05.059Z,15.97
2019-03-31T22:36:34.438Z,15.60
2019-03-31T22:39:05.483Z,24.27
2019-03-31T22:41:34.876Z,12.43
2019-03-31T22:44:04.663Z,16.40
2019-03-31T22:46:34.039Z,15.60
2019-03-31T22:49:03.416Z,15.90
2019-03-31T22:51:32.796Z,19.55
2019-03-31T22:54:02.163Z,15.20
2019-03-31T22:56:31.535Z,14.77
2019-03-31T22:59:00.896Z,23.87
2019-03-31T23:01:30.279Z,20.07
2019-03-31T23:03:59.641Z,23.90
2019-03-31T23:06:29.027Z,14.03
2019-03-31T23:08:58.391Z,16.23
2019-03-31T23:11:27.764Z,12.80
2019-03-31T23:13:57.206Z,10.10
2019-03-31T23:16:26.583Z,15.50
2019-03-31T23:18:55.942Z,8.67
2019-03-31T23:21:26.465Z,13.48
2019-03-31T23:23:56.454Z,15.32
2019-03-31T23:26:26.651Z,13.38
2019-03-31T23:28:56.043Z,21.93
2019-03-31T23:31:25.666Z,13.43
2019-03-31T23:33:55.040Z,15.77
2019-03-31T23:36:24.415Z,15.80
2019-03-31T23:38:53.804Z,20.70
2019-03-31T23:41:23.205Z,14.27
2019-03-31T23:43:52.568Z,16.40
2019-03-31T23:46:21.946Z,13.60
2019-03-31T23:48:51.316Z,18.63
2019-03-31T23:51:20.698Z,11.37
2019-03-31T23:53:50.076Z,13.03
2019-03-31T23:56:19.448Z,13.72
2019-03-31T23:58:48.821Z,10.60
